Time;durP1;ratioP1;P1;durP2;ratioP2;P2;SDS_P1;SDS_P2;PMS_P1;PMS_P2;Temp;Humidity;BMP_temperature;BMP_pressure;BME280_temperature;BME280_humidity;BME280_pressure;Samples;Min_cycle;Max_cycle;Signal;HPM_P1;HPM_P2
2022/09/05 00:02:31;;;;;;;8.00;4.57;;;;;;;21.04;57.86;101884.53;5070174;28;20890;-46
2022/09/05 00:04:56;;;;;;;9.27;5.55;;;;;;;20.92;58.62;101885.41;5066125;28;20036;-46
2022/09/05 00:07:31;;;;;;;8.93;5.22;;;;;;;20.88;58.54;101878.44;5071738;28;20078;-45
2022/09/05 00:10:03;;;;;;;11.95;5.40;;;;;;;20.82;58.61;101876.69;5074300;28;20467;-46
2022/09/05 00:12:31;;;;;;;8.55;5.28;;;;;;;20.78;58.95;101877.53;5070081;28;20081;-45
2022/09/05 00:15:26;;;;;;;7.32;4.40;;;;;;;20.87;58.82;101882.81;5072343;28;20043;-47
2022/09/05 00:18:26;;;;;;;8.52;4.75;;;;;;;20.84;58.64;101881.91;5072784;28;20024;-46
2022/09/05 00:21:28;;;;;;;8.73;3.90;;;;;;;20.85;58.83;101876.69;5069894;28;20033;-45
2022/09/05 00:24:04;;;;;;;7.72;3.35;;;;;;;20.72;59.85;101869.69;5071469;28;20043;-47
2022/09/05 00:26:50;;;;;;;5.50;3.30;;;;;;;20.79;59.03;101875.78;5074561;28;20035;-45
2022/09/05 00:29:28;;;;;;;12.07;4.32;;;;;;;20.71;59.33;101867.06;5072611;28;20028;-46
2022/09/05 00:31:59;;;;;;;11.38;4.30;;;;;;;20.63;59.49;101872.28;5068727;28;20055;-45
2022/09/05 00:35:12;;;;;;;6.70;3.97;;;;;;;20.68;59.44;101875.75;5074560;28;20127;-46
2022/09/05 00:37:49;;;;;;;7.68;3.80;;;;;;;20.53;59.81;101875.75;5065106;28;20048;-46
2022/09/05 00:40:39;;;;;;;6.63;3.80;;;;;;;20.62;59.57;101875.75;5074791;28;20036;-46
2022/09/05 00:43:11;;;;;;;6.57;4.07;;;;;;;20.51;60.26;101873.13;5073504;28;20040;-46
2022/09/05 00:45:59;;;;;;;7.32;4.22;;;;;;;20.56;59.90;101875.72;5069607;28;20028;-46
2022/09/05 00:48:53;;;;;;;7.93;4.15;;;;;;;20.49;59.89;101880.06;5069496;28;20024;-46
2022/09/05 00:51:54;;;;;;;7.43;4.30;;;;;;;20.43;60.38;101880.00;5038037;28;20093;-45
2022/09/05 00:54:22;;;;;;;6.53;4.10;;;;;;;20.41;60.42;101867.81;5028416;28;20515;-47
2022/09/05 00:56:47;;;;;;;7.35;4.40;;;;;;;20.33;60.29;101866.06;5061936;28;20040;-46
2022/09/05 00:59:35;;;;;;;6.75;4.40;;;;;;;20.37;60.22;101866.94;5070023;28;20057;-46
2022/09/05 01:02:34;;;;;;;7.65;4.93;;;;;;;20.45;59.63;101866.97;5071137;28;20043;-46
2022/09/05 01:05:05;;;;;;;8.00;5.90;;;;;;;20.29;60.13;101866.03;5068071;28;20041;-47
2022/09/05 01:07:48;;;;;;;9.60;5.85;;;;;;;20.27;59.69;101862.56;5070949;28;20493;-47
2022/09/05 01:10:25;;;;;;;8.77;5.90;;;;;;;20.29;59.66;101866.91;5073117;28;20143;-47
2022/09/05 01:13:12;;;;;;;10.27;6.70;;;;;;;20.30;59.19;101866.03;5071912;28;20563;-47
2022/09/05 01:15:58;;;;;;;9.88;6.20;;;;;;;20.27;59.32;101871.28;5070992;28;20107;-47
2022/09/05 01:18:31;;;;;;;13.23;6.55;;;;;;;20.23;59.55;101871.25;5069073;28;20843;-46
2022/09/05 01:21:24;;;;;;;12.35;6.55;;;;;;;20.23;59.47;101866.88;5069969;28;20749;-45
2022/09/05 01:24:02;;;;;;;10.82;7.45;;;;;;;20.16;59.35;101870.34;5071968;28;20036;-45
2022/09/05 01:26:49;;;;;;;9.90;7.30;;;;;;;20.23;58.89;101864.28;5064081;28;20107;-45
2022/09/05 01:29:31;;;;;;;10.13;8.25;;;;;;;20.19;58.98;101853.81;5074211;28;20806;-46
2022/09/05 01:32:17;;;;;;;10.55;7.45;;;;;;;20.19;58.93;101859.03;5071452;28;20452;-46
2022/09/05 01:35:21;;;;;;;11.55;7.72;;;;;;;20.05;59.52;101862.44;5069603;28;20069;-45
2022/09/05 01:37:55;;;;;;;10.55;7.45;;;;;;;20.07;59.74;101860.72;5011429;28;20041;-45
2022/09/05 01:40:28;;;;;;;12.52;7.32;;;;;;;20.08;59.49;101866.81;5003789;28;20037;-45
2022/09/05 01:42:56;;;;;;;9.88;7.80;;;;;;;20.01;59.85;101865.03;5033844;28;20043;-45
2022/09/05 01:45:50;;;;;;;11.15;7.93;;;;;;;20.05;59.30;101861.59;5053861;28;20728;-45
2022/09/05 01:48:33;;;;;;;9.68;7.93;;;;;;;20.08;59.26;101861.59;5052291;28;20036;-46
2022/09/05 01:51:24;;;;;;;12.93;8.18;;;;;;;20.07;59.33;101867.69;5067149;28;20025;-46
2022/09/05 01:53:57;;;;;;;16.15;9.50;;;;;;;19.96;59.59;101862.44;5072118;28;20023;-47
2022/09/05 01:56:44;;;;;;;14.15;9.45;;;;;;;19.94;59.92;101868.47;5058527;28;20029;-50
2022/09/05 01:59:37;;;;;;;10.50;8.65;;;;;;;19.91;59.92;101863.25;5054625;28;20159;-45
2022/09/05 02:02:21;;;;;;;14.40;9.38;;;;;;;19.93;59.73;101870.22;5056554;28;20043;-46
2022/09/05 02:05:14;;;;;;;12.25;9.65;;;;;;;19.94;59.86;101866.75;5053631;28;20032;-45
2022/09/05 02:08:19;;;;;;;11.80;9.68;;;;;;;19.92;60.12;101870.22;5048155;28;20571;-46
2022/09/05 02:11:04;;;;;;;17.08;10.23;;;;;;;19.84;59.96;101867.56;5062902;28;20488;-46
2022/09/05 02:13:32;;;;;;;16.67;10.50;;;;;;;19.80;60.67;101865.81;5057325;28;20125;-45
2022/09/05 02:16:19;;;;;;;12.90;10.27;;;;;;;19.83;60.26;101864.06;5069348;28;20110;-45
2022/09/05 02:19:16;;;;;;;14.48;10.07;;;;;;;19.80;60.18;101866.66;5064854;28;20033;-46
2022/09/05 02:21:44;;;;;;;11.57;10.20;;;;;;;19.71;60.84;101865.72;5068449;28;20036;-45
2022/09/05 02:24:20;;;;;;;16.23;9.93;;;;;;;19.72;60.69;101865.75;5072934;28;20040;-46
2022/09/05 02:27:05;;;;;;;13.40;9.90;;;;;;;19.73;60.28;101862.28;5070710;28;20040;-45
2022/09/05 02:29:40;;;;;;;16.45;10.75;;;;;;;19.69;60.63;101870.06;5072550;28;20036;-46
2022/09/05 02:32:31;;;;;;;13.43;10.40;;;;;;;19.59;61.02;101871.75;5072217;28;20035;-45
2022/09/05 02:35:06;;;;;;;16.58;11.20;;;;;;;19.56;61.39;101875.19;5044161;28;20592;-48
2022/09/05 02:37:56;;;;;;;17.48;11.05;;;;;;;19.62;60.75;101876.13;5071907;28;20032;-46
2022/09/05 02:40:31;;;;;;;18.55;12.38;;;;;;;19.54;60.96;101878.66;5067466;28;20511;-48
2022/09/05 02:43:28;;;;;;;15.50;11.43;;;;;;;19.60;61.10;101877.84;5069839;28;20594;-46
2022/09/05 02:46:07;;;;;;;17.05;11.35;;;;;;;19.60;61.32;101878.72;5067383;28;20139;-45
2022/09/05 02:48:49;;;;;;;15.82;12.18;;;;;;;19.54;61.40;101878.66;5071080;28;20031;-46
2022/09/05 02:51:26;;;;;;;18.27;12.20;;;;;;;19.52;61.19;101869.91;5069306;28;20046;-45
2022/09/05 02:54:01;;;;;;;18.08;12.15;;;;;;;19.44;61.39;101874.22;5071249;28;20776;-45
2022/09/05 02:57:02;;;;;;;16.48;11.95;;;;;;;19.50;61.21;101876.88;5070309;28;20092;-45
2022/09/05 03:00:06;;;;;;;16.35;12.32;;;;;;;19.49;61.12;101869.91;5046938;28;20060;-46
2022/09/05 03:02:52;;;;;;;17.88;13.05;;;;;;;19.34;62.21;101882.81;5070022;28;20627;-47
2022/09/05 03:05:34;;;;;;;20.52;12.30;;;;;;;19.42;61.71;101873.34;5070392;28;20045;-45
2022/09/05 03:08:37;;;;;;;17.42;12.23;;;;;;;19.41;61.46;101877.66;5065663;28;20032;-46
2022/09/05 03:11:21;;;;;;;20.90;13.15;;;;;;;19.24;62.51;101874.94;5072935;28;20481;-45
2022/09/05 03:14:11;;;;;;;22.90;12.50;;;;;;;19.36;61.73;101873.31;5066542;28;20032;-45
2022/09/05 03:16:48;;;;;;;18.70;12.65;;;;;;;19.25;62.66;101873.19;5070601;28;20554;-46
2022/09/05 03:19:16;;;;;;;23.25;12.80;;;;;;;19.20;62.78;101875.75;5066027;28;20464;-46
2022/09/05 03:22:02;;;;;;;19.40;13.50;;;;;;;19.21;62.32;101874.91;5070082;28;20024;-46
2022/09/05 03:24:59;;;;;;;18.35;12.73;;;;;;;19.25;62.27;101874.06;5068331;28;20042;-46
2022/09/05 03:27:48;;;;;;;21.13;13.63;;;;;;;19.21;62.60;101872.28;5071506;28;20492;-46
2022/09/05 03:30:21;;;;;;;22.20;13.48;;;;;;;19.17;62.79;101869.63;5065513;28;20047;-46
2022/09/05 03:33:02;;;;;;;21.02;13.45;;;;;;;19.12;62.65;101874.84;5069280;28;20495;-47
2022/09/05 03:36:01;;;;;;;20.83;13.52;;;;;;;19.17;62.36;101877.47;5070093;28;20024;-47
2022/09/05 03:38:38;;;;;;;20.02;13.77;;;;;;;19.10;62.94;101879.13;5069657;28;20028;-46
2022/09/05 03:41:22;;;;;;;20.52;13.38;;;;;;;18.98;63.43;101876.41;5070568;28;20081;-47
2022/09/05 03:44:15;;;;;;;18.60;13.45;;;;;;;19.12;62.62;101876.56;5069957;28;20480;-45
2022/09/05 03:46:46;;;;;;;18.23;14.55;;;;;;;18.98;63.40;101871.22;5070451;28;20061;-45
2022/09/05 03:49:42;;;;;;;18.67;13.27;;;;;;;19.06;63.20;101874.78;5073467;28;20024;-45
2022/09/05 03:52:26;;;;;;;18.15;12.60;;;;;;;19.10;63.16;101866.09;5076009;28;20036;-46
2022/09/05 03:55:09;;;;;;;22.38;13.10;;;;;;;19.00;63.44;101865.16;5070796;28;20028;-46
2022/09/05 03:58:03;;;;;;;24.95;13.68;;;;;;;19.03;63.37;101867.78;5073024;28;20040;-48
2022/09/05 04:00:33;;;;;;;18.35;12.55;;;;;;;18.99;63.42;101870.38;5077235;28;20405;-45
2022/09/05 04:03:19;;;;;;;16.60;12.63;;;;;;;19.05;63.10;101877.34;5078790;28;20123;-45
2022/09/05 04:06:06;;;;;;;18.15;12.57;;;;;;;19.02;63.04;101865.16;5080309;28;20023;-46
2022/09/05 04:08:50;;;;;;;18.15;12.63;;;;;;;18.99;63.50;101871.25;5073088;28;20028;-46
2022/09/05 04:11:39;;;;;;;16.77;12.75;;;;;;;19.00;63.34;101869.50;5075855;28;20032;-46
2022/09/05 04:14:13;;;;;;;19.55;12.82;;;;;;;18.88;64.13;101879.81;5079605;28;20039;-46
2022/09/05 04:16:48;;;;;;;17.70;12.60;;;;;;;18.83;63.95;101882.38;5073210;28;20051;-46
2022/09/05 04:19:24;;;;;;;18.77;13.27;;;;;;;18.83;64.02;101878.88;5073272;28;20084;-45
2022/09/05 04:22:02;;;;;;;19.42;12.82;;;;;;;18.75;64.57;101884.03;5076539;28;20032;-47
2022/09/05 04:24:32;;;;;;;22.92;14.30;;;;;;;18.73;64.74;101886.59;5073056;28;20062;-45
2022/09/05 04:27:15;;;;;;;19.90;12.95;;;;;;;18.74;64.26;101885.72;5074136;28;20041;-45
2022/09/05 04:30:17;;;;;;;17.67;12.98;;;;;;;18.79;64.14;101890.13;5074942;28;20500;-45
2022/09/05 04:33:13;;;;;;;18.73;12.27;;;;;;;18.78;63.90;101883.19;5071121;28;20031;-45
2022/09/05 04:36:03;;;;;;;16.38;12.43;;;;;;;18.73;64.52;101885.72;5070427;28;20047;-47
2022/09/05 04:38:37;;;;;;;17.98;13.02;;;;;;;18.69;64.46;101879.63;5071634;28;20512;-45
2022/09/05 04:41:08;;;;;;;21.20;13.20;;;;;;;18.62;65.11;101879.47;5072902;28;20043;-45
2022/09/05 04:43:47;;;;;;;17.48;12.10;;;;;;;18.65;64.64;101888.22;5069233;28;20033;-46
2022/09/05 04:47:00;;;;;;;18.00;12.77;;;;;;;18.68;64.28;101882.19;5076038;28;20485;-45
2022/09/05 04:49:54;;;;;;;16.42;12.80;;;;;;;18.63;64.85;101889.06;5025408;28;20743;-47
2022/09/05 04:52:41;;;;;;;18.98;12.38;;;;;;;18.66;64.58;101892.56;5071691;28;20039;-46
2022/09/05 04:55:12;;;;;;;16.77;12.55;;;;;;;18.57;65.13;101891.59;5075243;28;20098;-45
2022/09/05 04:57:58;;;;;;;18.00;12.63;;;;;;;18.61;64.66;101886.44;5079347;28;20043;-45
2022/09/05 05:00:45;;;;;;;16.75;12.68;;;;;;;18.53;65.27;101882.88;5070719;28;20798;-46
2022/09/05 05:03:23;;;;;;;19.38;13.05;;;;;;;18.60;64.71;101889.91;5072647;28;20523;-46
2022/09/05 05:05:54;;;;;;;16.10;12.38;;;;;;;18.54;65.10;101897.63;5072639;28;20128;-46
2022/09/05 05:08:28;;;;;;;21.48;12.82;;;;;;;18.48;65.16;101890.63;5072054;28;20020;-45
2022/09/05 05:10:58;;;;;;;20.42;12.63;;;;;;;18.51;65.27;101895.00;5068810;28;20020;-46
2022/09/05 05:13:29;;;;;;;16.23;12.50;;;;;;;18.47;65.27;101903.63;5067513;28;20031;-45
2022/09/05 05:16:01;;;;;;;20.20;12.43;;;;;;;18.47;65.31;101893.22;5075178;28;20036;-44
2022/09/05 05:18:38;;;;;;;19.63;12.80;;;;;;;18.50;65.33;101898.44;5071703;28;20028;-45
2022/09/05 05:21:06;;;;;;;21.50;12.90;;;;;;;18.42;65.63;101910.50;5072550;28;20552;-46
2022/09/05 05:23:42;;;;;;;18.20;12.23;;;;;;;18.51;65.32;101920.19;5072612;28;20043;-46
2022/09/05 05:26:17;;;;;;;17.83;11.98;;;;;;;18.47;65.52;101904.50;5075460;28;20036;-46
2022/09/05 05:28:49;;;;;;;16.15;12.25;;;;;;;18.45;65.59;101914.03;5073271;28;20034;-45
2022/09/05 05:31:19;;;;;;;22.77;12.15;;;;;;;18.37;65.94;101913.06;5074632;28;20035;-46
2022/09/05 05:33:49;;;;;;;18.15;12.73;;;;;;;18.38;66.04;101919.13;5074730;28;20524;-48
2022/09/05 05:36:38;;;;;;;18.42;12.30;;;;;;;18.50;65.23;101908.88;5075382;28;20024;-45
2022/09/05 05:39:19;;;;;;;17.25;12.15;;;;;;;18.44;65.84;101903.59;5074649;28;20515;-45
2022/09/05 05:41:50;;;;;;;18.75;12.65;;;;;;;18.41;66.10;101908.78;5072449;28;20395;-45
2022/09/05 05:44:25;;;;;;;21.40;12.77;;;;;;;18.45;66.07;101915.78;5073184;28;20028;-46
2022/09/05 05:47:14;;;;;;;23.00;12.57;;;;;;;18.48;65.99;101911.47;5070789;28;20055;-46
2022/09/05 05:50:01;;;;;;;16.27;12.95;;;;;;;18.51;65.68;101900.22;5077290;28;20405;-45
2022/09/05 05:53:04;;;;;;;23.00;13.30;;;;;;;18.60;65.70;101913.34;5071751;28;20035;-45
2022/09/05 05:55:50;;;;;;;20.35;12.57;;;;;;;18.55;66.22;101916.75;5049059;28;20040;-46
2022/09/05 05:58:53;;;;;;;23.90;13.05;;;;;;;18.61;65.84;101922.91;5071866;28;20032;-46
2022/09/05 06:01:24;;;;;;;25.15;13.23;;;;;;;18.64;66.06;101917.75;5075888;28;20028;-45
2022/09/05 06:04:21;;;;;;;19.52;13.48;;;;;;;18.72;65.98;101921.31;5076847;28;20028;-45
2022/09/05 06:07:20;;;;;;;17.52;13.02;;;;;;;18.77;65.47;101924.00;5073307;28;20031;-45
2022/09/05 06:10:14;;;;;;;20.52;13.10;;;;;;;18.84;65.25;101928.41;5070927;28;20024;-46
2022/09/05 06:13:01;;;;;;;22.15;12.95;;;;;;;18.86;65.35;101933.63;5075752;28;20078;-45
2022/09/05 06:15:41;;;;;;;20.48;13.20;;;;;;;18.87;65.61;101933.66;5073843;28;20073;-45
2022/09/05 06:18:19;;;;;;;22.52;12.77;;;;;;;18.95;65.26;101928.53;5074392;28;20674;-45
2022/09/05 06:20:56;;;;;;;18.42;13.20;;;;;;;19.02;65.46;101935.56;5069181;28;20030;-45
2022/09/05 06:23:30;;;;;;;21.52;12.77;;;;;;;18.96;65.64;101936.34;5077185;28;20081;-46
2022/09/05 06:26:11;;;;;;;16.98;13.15;;;;;;;19.08;65.01;101937.34;5079783;28;20031;-45
2022/09/05 06:29:25;;;;;;;18.65;12.65;;;;;;;19.19;64.49;101939.22;5072320;28;20488;-47
2022/09/05 06:31:56;;;;;;;19.40;12.13;;;;;;;19.21;64.77;101937.47;5070019;28;20028;-46
2022/09/05 06:34:39;;;;;;;18.42;12.90;;;;;;;19.30;64.55;101934.09;5072327;28;20085;-46
2022/09/05 06:37:11;;;;;;;17.50;12.30;;;;;;;19.35;64.59;101934.13;5070413;28;20035;-45
2022/09/05 06:40:07;;;;;;;19.80;12.02;;;;;;;19.51;63.68;101926.44;5072497;28;20028;-45
2022/09/05 06:42:45;;;;;;;15.18;11.77;;;;;;;19.58;63.15;101935.22;5067236;28;20514;-46
2022/09/05 06:45:34;;;;;;;15.90;11.93;;;;;;;19.69;63.15;101941.41;5070973;28;20408;-46
2022/09/05 06:48:21;;;;;;;17.60;11.73;;;;;;;19.82;62.48;101938.00;5068787;28;20039;-46
2022/09/05 06:50:57;;;;;;;17.98;11.57;;;;;;;19.90;62.59;101938.09;5074397;28;20051;-45
2022/09/05 06:53:46;;;;;;;14.45;11.40;;;;;;;20.01;62.98;101938.13;5074619;28;20416;-48
2022/09/05 06:56:43;;;;;;;16.65;11.80;;;;;;;20.10;63.05;101938.22;5071284;28;20034;-46
2022/09/05 06:59:36;;;;;;;18.92;11.20;;;;;;;20.28;61.66;101932.22;5066902;28;20051;-45
2022/09/05 07:02:18;;;;;;;14.05;10.45;;;;;;;20.35;61.48;101932.25;5072732;28;20608;-47
2022/09/05 07:05:02;;;;;;;18.75;10.88;;;;;;;20.46;60.77;101931.47;5072343;28;20032;-46
2022/09/05 07:07:41;;;;;;;14.60;10.73;;;;;;;20.59;60.45;101928.88;5073829;28;20024;-46
2022/09/05 07:10:38;;;;;;;14.85;10.30;;;;;;;20.68;60.05;101935.88;5070752;28;20040;-47
2022/09/05 07:13:14;;;;;;;15.63;10.98;;;;;;;20.79;60.20;101931.56;5068164;28;20059;-48
2022/09/05 07:15:58;;;;;;;19.25;10.82;;;;;;;20.89;60.10;101933.34;5069129;28;20485;-45
2022/09/05 07:18:30;;;;;;;16.05;10.82;;;;;;;20.97;60.11;101933.34;5070424;28;20052;-48
2022/09/05 07:21:00;;;;;;;14.18;10.20;;;;;;;21.08;60.38;101941.22;5074306;28;20038;-47
2022/09/05 07:23:47;;;;;;;19.15;10.90;;;;;;;21.25;59.78;101944.75;5071321;28;20040;-46
2022/09/05 07:26:15;;;;;;;15.63;10.40;;;;;;;21.29;59.35;101937.78;5069199;28;20542;-48
2022/09/05 07:28:44;;;;;;;17.35;10.27;;;;;;;21.36;58.05;101937.81;5073745;28;20028;-46
2022/09/05 07:31:14;;;;;;;;;;;;;;;21.49;58.83;101941.31;5076983;28;20031;-45
2022/09/05 07:33:43;;;;;;;16.80;11.13;;;;;;;21.54;58.36;101938.69;5070018;28;19921;-48
2022/09/05 07:36:13;;;;;;;16.70;11.70;;;;;;;21.66;57.67;101941.31;5066683;28;20048;-47
2022/09/05 07:38:39;;;;;;;20.73;11.25;;;;;;;21.75;58.77;101938.66;5065535;28;23023;-47
2022/09/05 07:41:25;;;;;;;14.57;10.45;;;;;;;21.87;58.12;101946.50;5069336;28;20546;-46
2022/09/05 07:43:56;;;;;;;17.23;11.02;;;;;;;21.99;57.06;101952.59;5072228;28;20032;-50
2022/09/05 07:46:30;;;;;;;17.05;10.82;;;;;;;22.09;58.66;101964.81;5078020;28;20046;-46
2022/09/05 07:49:05;;;;;;;14.05;10.57;;;;;;;22.14;57.01;101960.44;5072431;28;20059;-46
2022/09/05 07:51:36;;;;;;;19.33;10.70;;;;;;;22.23;57.34;101957.81;5075590;28;20739;-47
2022/09/05 07:54:23;;;;;;;20.50;11.07;;;;;;;22.34;57.74;101963.03;5075930;28;20063;-49
2022/09/05 07:56:52;;;;;;;20.85;11.10;;;;;;;22.42;57.95;101964.72;5073164;28;20031;-46
2022/09/05 07:59:19;;;;;;;16.50;10.77;;;;;;;22.50;56.26;101964.69;5073126;28;20563;-47
2022/09/05 08:01:47;;;;;;;20.88;10.75;;;;;;;22.56;57.33;101967.28;5070436;28;20404;-47
2022/09/05 08:04:30;;;;;;;18.63;10.60;;;;;;;22.67;57.30;101967.25;5071895;28;20020;-47
2022/09/05 08:06:59;;;;;;;19.10;9.18;;;;;;;22.74;56.87;101964.59;5070794;28;20083;-48
2022/09/05 08:09:30;;;;;;;20.92;8.40;;;;;;;22.90;55.06;101973.28;5076065;28;20040;-48
2022/09/05 08:12:00;;;;;;;14.32;7.57;;;;;;;23.01;54.98;101962.75;5072395;28;20147;-46
2022/09/05 08:14:36;;;;;;;15.75;6.60;;;;;;;23.12;54.68;101950.44;5075923;28;20094;-46
2022/09/05 08:17:11;;;;;;;15.05;6.30;;;;;;;23.19;54.06;101954.75;5075291;28;20485;-47
2022/09/05 08:19:55;;;;;;;11.98;6.15;;;;;;;23.30;53.59;101949.44;5070623;28;20086;-47
2022/09/05 08:22:25;;;;;;;10.48;5.50;;;;;;;23.35;53.58;101944.13;5072657;28;20028;-49
2022/09/05 08:25:46;;;;;;;11.45;5.40;;;;;;;23.47;52.80;101944.91;5077650;28;20032;-48
2022/09/05 08:28:27;;;;;;;10.45;4.63;;;;;;;23.57;52.50;101950.09;5004500;28;20107;-47
2022/09/05 08:31:06;;;;;;;8.18;4.63;;;;;;;23.66;52.33;101958.81;5071747;28;20106;-47
2022/09/05 08:33:35;;;;;;;9.93;4.60;;;;;;;23.80;50.46;101954.28;5074577;28;20400;-49
2022/09/05 08:36:27;;;;;;;8.57;4.00;;;;;;;23.86;51.45;101963.88;5073479;28;20023;-48
2022/09/05 08:38:55;;;;;;;11.80;5.05;;;;;;;24.00;50.10;101964.59;5075658;28;20035;-50
2022/09/05 08:41:28;;;;;;;9.68;4.07;;;;;;;24.04;50.75;101963.69;5075168;28;20056;-47
2022/09/05 08:44:15;;;;;;;8.20;3.72;;;;;;;24.16;50.90;101967.06;5084360;28;20481;-46
2022/09/05 08:46:51;;;;;;;8.93;3.80;;;;;;;24.22;51.05;101962.63;5074950;28;20024;-47
2022/09/05 08:49:37;;;;;;;7.57;3.85;;;;;;;24.28;51.06;101961.69;5071921;28;20108;-50
2022/09/05 08:52:08;;;;;;;8.35;3.63;;;;;;;24.40;50.08;101952.81;5073192;28;20033;-46
2022/09/05 08:54:49;;;;;;;4.57;3.38;;;;;;;24.45;49.77;101953.59;5075961;28;20107;-46
2022/09/05 08:57:43;;;;;;;8.23;3.45;;;;;;;24.52;49.91;101950.03;5077081;28;20433;-47
2022/09/05 09:00:10;;;;;;;4.55;3.05;;;;;;;24.70;48.22;101946.28;5074861;28;20492;-47
2022/09/05 09:02:51;;;;;;;9.63;3.05;;;;;;;24.80;47.58;101940.00;5066792;28;20028;-46
2022/09/05 09:05:21;;;;;;;11.13;2.97;;;;;;;24.87;47.18;101939.00;5078636;28;20397;-46
2022/09/05 09:08:11;;;;;;;7.82;2.83;;;;;;;24.94;47.44;101940.69;5070883;28;20055;-46
2022/09/05 09:10:54;;;;;;;6.40;2.80;;;;;;;25.02;47.00;101935.31;5067884;28;20036;-47
2022/09/05 09:13:38;;;;;;;8.73;2.47;;;;;;;25.17;47.28;101934.22;5078202;28;20523;-47
2022/09/05 09:16:17;;;;;;;5.55;2.30;;;;;;;25.31;44.26;101938.41;5073699;28;20393;-49
2022/09/05 09:18:48;;;;;;;5.97;2.17;;;;;;;25.45;43.94;101930.25;5078598;28;20384;-46
2022/09/05 09:21:23;;;;;;;5.63;2.15;;;;;;;25.52;44.50;101934.53;5070287;28;20166;-50
2022/09/05 09:24:16;;;;;;;4.15;2.00;;;;;;;25.56;45.49;101938.84;5073213;28;20069;-46
2022/09/05 09:26:54;;;;;;;6.72;2.40;;;;;;;25.57;45.47;101926.56;5067640;28;20037;-47
2022/09/05 09:29:22;;;;;;;8.50;1.70;;;;;;;25.67;43.72;101929.00;5076541;28;20691;-51
2022/09/05 09:31:48;;;;;;;5.50;1.60;;;;;;;25.80;41.93;101924.41;5072530;28;20039;-48
2022/09/05 09:34:24;;;;;;;4.60;2.05;;;;;;;25.87;42.21;101925.16;5073205;28;20028;-46
2022/09/05 09:37:21;;;;;;;5.35;1.60;;;;;;;25.97;43.19;101921.47;5072396;28;20480;-49
2022/09/05 09:39:50;;;;;;;6.72;1.83;;;;;;;26.05;42.77;101916.91;5070390;28;20575;-46
2022/09/05 09:42:29;;;;;;;8.32;1.55;;;;;;;26.11;43.25;101918.56;5071115;28;20051;-48
2022/09/05 09:45:03;;;;;;;4.25;1.60;;;;;;;26.21;41.71;101914.84;5068770;28;20021;-46
2022/09/05 09:47:52;;;;;;;3.65;1.60;;;;;;;26.24;42.30;101916.53;5079215;28;21282;-50
2022/09/05 09:50:25;;;;;;;7.90;1.90;;;;;;;26.35;42.05;101909.28;5048542;28;20727;-49
2022/09/05 09:52:59;;;;;;;5.05;1.70;;;;;;;26.41;41.67;101915.31;5068243;28;20508;-46
2022/09/05 09:55:53;;;;;;;3.55;1.40;;;;;;;26.49;40.75;101911.66;5076382;28;20103;-50
2022/09/05 09:58:31;;;;;;;6.45;2.05;;;;;;;26.53;41.22;101913.31;5077157;28;20044;-49
2022/09/05 10:01:20;;;;;;;4.63;1.77;;;;;;;26.64;41.40;101911.31;5074444;28;20131;-47
2022/09/05 10:04:14;;;;;;;3.55;1.55;;;;;;;26.70;41.04;101917.34;5071031;28;20055;-48
2022/09/05 10:07:01;;;;;;;4.80;1.40;;;;;;;26.90;39.62;101905.44;5060335;28;20504;-47
2022/09/05 10:09:56;;;;;;;2.95;1.60;;;;;;;26.92;40.52;101906.25;5072552;28;20031;-46
2022/09/05 10:12:25;;;;;;;6.13;1.50;;;;;;;27.05;39.06;101898.91;5029734;28;20770;-46
2022/09/05 10:15:19;;;;;;;4.30;1.52;;;;;;;27.12;38.48;101901.44;5072956;28;20024;-49
2022/09/05 10:17:57;;;;;;;2.97;1.40;;;;;;;27.21;37.49;101885.34;5068299;28;20574;-49
2022/09/05 10:21:04;;;;;;;1.88;1.27;;;;;;;27.35;37.48;101887.63;5071077;28;20480;-47
2022/09/05 10:23:40;;;;;;;3.10;1.50;;;;;;;27.51;36.77;101888.09;5079455;28;20027;-46
2022/09/05 10:26:05;;;;;;;3.60;1.45;;;;;;;27.58;35.59;101878.25;5070285;28;20036;-49
2022/09/05 10:28:41;;;;;;;3.22;1.10;;;;;;;27.69;35.94;101886.78;5079476;28;20028;-47
2022/09/05 10:31:17;;;;;;;1.83;1.30;;;;;;;27.79;35.42;101883.84;5069477;28;20523;-46
2022/09/05 10:33:46;;;;;;;6.50;1.20;;;;;;;28.00;34.03;101877.09;5067808;28;20667;-48
2022/09/05 10:36:14;;;;;;;4.35;1.05;;;;;;;28.16;33.59;101872.25;5073401;28;20019;-48
2022/09/05 10:38:45;;;;;;;5.32;1.17;;;;;;;28.31;34.37;101873.53;5072245;28;20032;-49
2022/09/05 10:41:18;;;;;;;3.63;1.10;;;;;;;28.42;35.42;101873.25;5065880;28;20029;-46
2022/09/05 10:44:01;;;;;;;2.05;1.15;;;;;;;28.64;34.86;101868.16;5069059;28;20043;-47
2022/09/05 10:46:46;;;;;;;5.57;1.40;;;;;;;28.79;33.87;101868.53;5069495;28;20159;-48
2022/09/05 10:49:14;;;;;;;3.78;1.63;;;;;;;28.94;33.79;101863.69;5073014;28;20522;-49
2022/09/05 10:52:14;;;;;;;2.90;1.45;;;;;;;29.13;34.21;101866.63;5067926;28;20417;-50
2022/09/05 10:55:01;;;;;;;2.90;1.30;;;;;;;29.35;33.15;101868.47;5059180;28;20136;-49
2022/09/05 10:58:04;;;;;;;6.63;1.40;;;;;;;29.54;33.39;101868.72;5068208;28;20052;-47
2022/09/05 11:00:51;;;;;;;2.47;1.20;;;;;;;29.78;31.99;101864.31;5066635;28;20411;-50
2022/09/05 11:03:31;;;;;;;4.78;1.17;;;;;;;29.99;33.35;101869.78;5070662;28;20084;-47
2022/09/05 11:05:59;;;;;;;5.57;1.33;;;;;;;30.20;31.25;101860.16;5074155;28;20028;-51
2022/09/05 11:08:57;;;;;;;5.88;1.10;;;;;;;30.34;32.20;101853.44;5072288;28;20103;-48
2022/09/05 11:11:25;;;;;;;6.60;1.75;;;;;;;30.47;31.68;101847.63;5042035;28;20054;-49
2022/09/05 11:13:54;;;;;;;3.13;1.30;;;;;;;30.62;30.10;101841.69;5067944;28;20045;-53
2022/09/05 11:16:44;;;;;;;4.25;1.30;;;;;;;30.87;31.12;101842.44;5067309;28;20074;-49
2022/09/05 11:19:38;;;;;;;3.90;1.30;;;;;;;31.05;32.17;101840.81;5065282;28;20559;-47
2022/09/05 11:22:06;;;;;;;4.25;1.17;;;;;;;31.12;30.54;101838.75;5067256;28;20581;-50
2022/09/05 11:24:59;;;;;;;4.63;1.10;;;;;;;31.29;30.22;101844.25;5064699;28;20492;-51
2022/09/05 11:27:47;;;;;;;5.07;1.30;;;;;;;31.43;29.96;101836.56;5068198;28;20029;-49
2022/09/05 11:30:18;;;;;;;2.83;1.30;;;;;;;31.51;29.35;101833.56;5066953;28;20054;-47
2022/09/05 11:33:02;;;;;;;4.70;1.25;;;;;;;31.51;28.34;101833.56;5072170;28;20081;-49
2022/09/05 11:35:32;;;;;;;3.65;1.10;;;;;;;31.68;29.03;101844.31;5073955;28;20468;-49
2022/09/05 11:37:58;;;;;;;1.85;1.10;;;;;;;31.82;29.21;101838.38;5075714;28;20118;-48
2022/09/05 11:40:45;;;;;;;3.65;1.00;;;;;;;32.01;28.72;101830.41;5068918;28;20107;-50
2022/09/05 11:43:35;;;;;;;2.83;1.07;;;;;;;32.11;28.97;101825.53;5075040;28;20059;-52
2022/09/05 11:46:37;;;;;;;3.38;1.00;;;;;;;32.11;28.34;101817.56;5071822;28;20431;-49
2022/09/05 11:49:34;;;;;;;3.30;1.15;;;;;;;32.06;29.90;101833.72;5070459;28;20449;-51
2022/09/05 11:52:09;;;;;;;3.03;1.00;;;;;;;31.65;28.32;101835.59;5069382;28;20027;-50
2022/09/05 11:55:12;;;;;;;4.88;1.17;;;;;;;31.55;28.97;101823.63;5069730;28;20472;-51
2022/09/05 11:57:53;;;;;;;3.08;1.00;;;;;;;31.24;29.92;101823.19;5072069;28;20016;-51
2022/09/05 12:00:38;;;;;;;4.53;1.35;;;;;;;31.11;29.70;101823.75;5071122;28;20055;-50
2022/09/05 12:03:32;;;;;;;2.70;1.20;;;;;;;30.85;29.72;101827.53;5071929;28;20020;-47
2022/09/05 12:05:57;;;;;;;2.33;1.20;;;;;;;30.67;29.24;101819.34;5065801;28;20051;-48
2022/09/05 12:08:55;;;;;;;1.75;0.98;;;;;;;30.61;30.37;101819.59;5073834;28;20469;-50
2022/09/05 12:11:51;;;;;;;3.00;1.20;;;;;;;30.65;30.06;101821.22;5031864;28;20037;-50
2022/09/05 12:14:43;;;;;;;2.92;1.20;;;;;;;30.58;29.95;101817.09;5076074;28;20388;-47
2022/09/05 12:17:28;;;;;;;3.72;1.35;;;;;;;30.43;30.31;101807.94;5073073;28;20477;-48
2022/09/05 12:20:09;;;;;;;4.45;1.10;;;;;;;30.51;30.51;101810.28;5058424;28;20042;-49
2022/09/05 12:22:37;;;;;;;3.47;1.30;;;;;;;30.39;30.67;101806.31;5071915;28;20039;-50
2022/09/05 12:25:21;;;;;;;3.40;1.10;;;;;;;30.41;30.31;101804.50;5073576;28;20068;-49